createdAt,value
2019-06-10T00:00:21.837Z,7.57
2019-06-10T00:02:51.730Z,7.17
2019-06-10T00:05:22.333Z,6.97
2019-06-10T00:07:52.815Z,7.27
2019-06-10T00:10:23.376Z,6.80
2019-06-10T00:12:55.386Z,6.67
2019-06-10T00:15:25.913Z,7.90
2019-06-10T00:18:20.890Z,7.03
2019-06-10T00:20:30.595Z,7.33
2019-06-10T00:23:02.516Z,7.33
2019-06-10T00:25:32.894Z,7.57
2019-06-10T00:28:05.642Z,7.40
2019-06-10T00:30:35.735Z,7.10
2019-06-10T00:33:07.694Z,7.30
2019-06-10T00:35:40.932Z,7.00
2019-06-10T00:38:13.953Z,7.70
2019-06-10T00:40:42.885Z,6.67
2019-06-10T00:43:13.712Z,7.43
2019-06-10T00:45:44.172Z,6.90
2019-06-10T00:48:24.997Z,7.40
2019-06-10T00:50:46.892Z,7.10
2019-06-10T00:53:17.391Z,7.47
2019-06-10T00:55:47.879Z,7.10
2019-06-10T00:58:18.344Z,7.73
2019-06-10T01:00:51.448Z,7.80
2019-06-10T01:03:21.081Z,7.27
2019-06-10T01:05:51.653Z,7.63
2019-06-10T01:08:22.136Z,7.70
2019-06-10T01:10:52.656Z,7.77
2019-06-10T01:13:23.149Z,7.17
2019-06-10T01:15:53.732Z,7.50
2019-06-10T01:18:34.429Z,7.73
2019-06-10T01:20:56.373Z,6.80
2019-06-10T01:23:26.816Z,6.60
2019-06-10T01:25:57.315Z,7.07
2019-06-10T01:28:27.773Z,6.50
2019-06-10T01:30:58.279Z,6.80
2019-06-10T01:33:28.799Z,6.30
2019-06-10T01:36:00.742Z,6.43
2019-06-10T01:38:31.753Z,6.57
2019-06-10T01:41:02.247Z,6.40
2019-06-10T01:43:32.839Z,6.30
2019-06-10T01:46:03.289Z,6.67
2019-06-10T01:48:43.964Z,6.90
2019-06-10T01:51:07.135Z,6.63
2019-06-10T01:53:37.644Z,6.63
2019-06-10T01:56:08.232Z,6.53
2019-06-10T01:58:40.665Z,6.33
2019-06-10T02:01:32.797Z,6.50
2019-06-10T02:04:03.245Z,6.60
2019-06-10T02:06:33.731Z,5.70
2019-06-10T02:09:05.920Z,6.53
2019-06-10T02:11:37.056Z,6.37
2019-06-10T02:14:07.943Z,6.17
2019-06-10T02:16:38.493Z,6.70
2019-06-10T02:19:11.465Z,6.43
2019-06-10T02:21:41.683Z,7.07
2019-06-10T02:24:14.358Z,6.80
2019-06-10T02:26:44.554Z,5.87
2019-06-10T02:29:16.133Z,6.47
2019-06-10T02:31:47.322Z,6.23
2019-06-10T02:34:22.982Z,5.97
2019-06-10T02:36:53.438Z,6.50
2019-06-10T02:39:30.619Z,6.33
2019-06-10T02:41:57.385Z,6.77
2019-06-10T02:44:33.239Z,6.13
2019-06-10T02:47:03.141Z,5.90
2019-06-10T02:49:51.514Z,5.83
2019-06-10T02:52:20.135Z,5.90
2019-06-10T02:54:53.359Z,5.83
2019-06-10T02:57:29.696Z,5.50
2019-06-10T02:59:54.754Z,6.10
2019-06-10T03:02:31.223Z,6.03
2019-06-10T03:04:57.405Z,6.47
2019-06-10T03:07:31.135Z,5.80
2019-06-10T03:10:00.052Z,6.70
2019-06-10T03:12:32.934Z,6.37
2019-06-10T03:15:02.723Z,5.83
2019-06-10T03:17:33.175Z,5.90
2019-06-10T03:20:03.756Z,5.57
2019-06-10T03:22:34.214Z,5.37
2019-06-10T03:25:05.160Z,5.47
2019-06-10T03:27:35.651Z,5.40
2019-06-10T03:30:15.817Z,5.33
2019-06-10T03:32:42.696Z,5.33
2019-06-10T03:35:13.257Z,5.57
2019-06-10T03:37:43.516Z,5.50
2019-06-10T03:40:14.099Z,5.10
2019-06-10T03:42:44.595Z,5.50
2019-06-10T03:45:15.560Z,5.10
2019-06-10T03:47:46.041Z,5.70
2019-06-10T03:50:17.219Z,5.23
2019-06-10T03:52:47.759Z,4.60
2019-06-10T03:55:19.298Z,5.67
2019-06-10T03:57:49.868Z,4.93
2019-06-10T04:00:21.947Z,5.80
2019-06-10T04:02:53.218Z,5.43
2019-06-10T04:05:25.405Z,5.20
2019-06-10T04:07:56.040Z,5.20
2019-06-10T04:10:29.168Z,5.47
2019-06-10T04:12:58.804Z,5.37
2019-06-10T04:15:29.614Z,5.23
2019-06-10T04:18:03.983Z,5.73
2019-06-10T04:20:33.825Z,5.80
2019-06-10T04:23:04.304Z,5.50
2019-06-10T04:25:36.224Z,5.80
2019-06-10T04:28:06.782Z,6.00
2019-06-10T04:30:37.311Z,5.50
2019-06-10T04:33:07.772Z,5.67
2019-06-10T04:35:38.264Z,5.73
2019-06-10T04:38:09.152Z,6.10
2019-06-10T04:40:39.603Z,5.93
2019-06-10T04:43:12.299Z,5.67
2019-06-10T04:45:43.037Z,5.83
2019-06-10T04:48:13.502Z,6.63
2019-06-10T04:50:46.438Z,5.93
2019-06-10T04:53:16.226Z,5.83
2019-06-10T04:55:46.682Z,5.20
2019-06-10T04:58:17.179Z,5.67
2019-06-10T05:00:52.376Z,6.00
2019-06-10T05:03:23.845Z,5.80
2019-06-10T05:05:54.765Z,5.80
2019-06-10T05:08:26.900Z,6.13
2019-06-10T05:10:57.464Z,5.53
2019-06-10T05:13:28.365Z,5.60
2019-06-10T05:16:00.335Z,5.60
2019-06-10T05:18:33.000Z,6.27
2019-06-10T05:21:03.256Z,6.27
2019-06-10T05:23:33.729Z,6.77
2019-06-10T05:26:04.420Z,7.20
2019-06-10T05:28:47.022Z,6.20
2019-06-10T05:31:17.764Z,6.60
2019-06-10T05:33:48.277Z,6.60
2019-06-10T05:36:20.612Z,6.63
2019-06-10T05:38:52.559Z,6.90
2019-06-10T05:41:24.898Z,6.00
2019-06-10T05:43:55.484Z,5.63
2019-06-10T05:46:27.296Z,5.93
2019-06-10T05:48:58.251Z,6.03
2019-06-10T05:51:30.663Z,5.43
2019-06-10T05:54:02.449Z,6.77
2019-06-10T05:56:35.705Z,6.37
2019-06-10T05:59:06.652Z,6.03
2019-06-10T06:01:38.704Z,7.10
2019-06-10T06:04:09.268Z,5.50
2019-06-10T06:06:41.781Z,6.17
2019-06-10T06:09:12.922Z,6.03
2019-06-10T06:11:52.454Z,6.40
2019-06-10T06:14:23.184Z,6.67
2019-06-10T06:16:53.669Z,6.57
2019-06-10T06:19:24.207Z,6.67
2019-06-10T06:21:54.854Z,7.23
2019-06-10T06:24:25.592Z,6.97
2019-06-10T06:26:56.181Z,8.10
2019-06-10T06:29:26.906Z,7.87
2019-06-10T06:31:57.575Z,11.30
2019-06-10T06:34:28.432Z,7.20
2019-06-10T06:36:58.938Z,6.93
2019-06-10T06:39:29.444Z,9.30
2019-06-10T06:42:02.228Z,8.40
2019-06-10T06:44:33.538Z,8.60
2019-06-10T06:47:04.566Z,7.73
2019-06-10T06:49:36.716Z,6.40
2019-06-10T06:52:07.657Z,7.07
2019-06-10T06:54:39.432Z,6.10
2019-06-10T06:57:10.103Z,7.43
2019-06-10T06:59:43.053Z,5.80
2019-06-10T07:02:12.828Z,5.53
2019-06-10T07:04:43.707Z,6.10
2019-06-10T07:07:15.832Z,4.80
2019-06-10T07:09:48.713Z,5.70
2019-06-10T07:12:23.025Z,5.33
2019-06-10T07:14:54.222Z,5.00
2019-06-10T07:17:32.005Z,5.17
2019-06-10T07:20:03.250Z,5.07
2019-06-10T07:22:36.476Z,5.23
2019-06-10T07:25:06.849Z,5.03
2019-06-10T07:27:39.051Z,4.93
2019-06-10T07:30:12.526Z,4.90
2019-06-10T07:32:46.847Z,4.87
2019-06-10T07:35:14.392Z,5.60
2019-06-10T07:37:46.091Z,5.27
2019-06-10T07:40:16.897Z,4.43
2019-06-10T07:42:47.404Z,4.07
2019-06-10T07:45:18.138Z,4.90
2019-06-10T07:47:48.618Z,4.30
2019-06-10T07:50:19.399Z,4.87
2019-06-10T07:52:49.950Z,4.30
2019-06-10T07:55:22.208Z,4.60
2019-06-10T07:57:53.174Z,4.90
2019-06-10T08:00:24.075Z,5.00
2019-06-10T08:02:54.645Z,5.40
2019-06-10T08:05:25.140Z,5.80
2019-06-10T08:07:55.686Z,4.80
2019-06-10T08:10:26.343Z,4.80
2019-06-10T08:12:56.849Z,5.00
2019-06-10T08:15:27.469Z,6.03
2019-06-10T08:17:57.957Z,9.07
2019-06-10T08:20:47.724Z,6.20
2019-06-10T08:23:20.017Z,4.27
2019-06-10T08:25:56.594Z,4.90
2019-06-10T08:28:23.285Z,4.73
2019-06-10T08:30:53.942Z,4.77
2019-06-10T08:33:24.508Z,4.30
2019-06-10T08:36:00.244Z,5.33
2019-06-10T08:38:27.439Z,6.07
2019-06-10T08:40:57.983Z,5.20
2019-06-10T08:43:28.670Z,6.13
2019-06-10T08:45:59.242Z,4.97
2019-06-10T08:48:29.751Z,5.37
2019-06-10T08:51:00.356Z,4.40
2019-06-10T08:53:33.072Z,4.70
2019-06-10T08:56:03.267Z,4.40
2019-06-10T08:58:33.875Z,5.23
2019-06-10T09:01:04.830Z,7.03
2019-06-10T09:03:35.381Z,6.40
2019-06-10T09:06:06.057Z,5.13
2019-06-10T09:08:39.543Z,4.70
2019-06-10T09:11:08.821Z,7.37
2019-06-10T09:13:40.752Z,7.37
2019-06-10T09:16:18.907Z,4.90
2019-06-10T09:18:47.481Z,7.93
2019-06-10T09:21:16.253Z,4.93
2019-06-10T09:23:51.522Z,4.57
2019-06-10T09:26:19.214Z,4.60
2019-06-10T09:28:53.788Z,5.70
2019-06-10T09:31:23.863Z,4.53
2019-06-10T09:33:56.976Z,5.13
2019-06-10T09:36:27.046Z,4.77
2019-06-10T09:38:57.580Z,5.47
2019-06-10T09:41:39.461Z,5.60
2019-06-10T09:44:00.311Z,4.07
2019-06-10T09:46:33.256Z,4.03
2019-06-10T09:49:05.650Z,5.10
2019-06-10T09:51:36.270Z,4.97
2019-06-10T09:54:07.116Z,5.43
2019-06-10T09:56:37.687Z,4.30
2019-06-10T09:59:12.537Z,4.47
2019-06-10T10:01:47.223Z,5.00
2019-06-10T10:04:15.517Z,4.43
2019-06-10T10:06:48.955Z,4.03
2019-06-10T10:09:18.678Z,4.17
2019-06-10T10:11:51.331Z,3.87
2019-06-10T10:14:23.100Z,3.23
2019-06-10T10:16:59.180Z,3.20
2019-06-10T10:19:26.752Z,4.07
2019-06-10T10:21:58.562Z,3.87
2019-06-10T10:24:29.397Z,3.13
2019-06-10T10:27:02.671Z,2.97
2019-06-10T10:29:32.878Z,2.70
2019-06-10T10:32:03.820Z,3.63
2019-06-10T10:34:34.315Z,3.40
2019-06-10T10:37:04.833Z,3.27
2019-06-10T10:39:35.420Z,3.80
2019-06-10T10:42:06.068Z,3.33
2019-06-10T10:44:36.648Z,3.20
2019-06-10T10:47:07.194Z,6.40
2019-06-10T10:49:37.672Z,4.93
2019-06-10T10:52:08.200Z,3.17
2019-06-10T10:54:38.664Z,4.13
2019-06-10T10:57:09.185Z,5.13
2019-06-10T10:59:39.666Z,3.70
2019-06-10T11:02:12.577Z,3.57
2019-06-10T11:04:46.605Z,5.10
2019-06-10T11:07:18.400Z,4.50
2019-06-10T11:09:50.330Z,3.70
2019-06-10T11:12:24.321Z,3.50
2019-06-10T11:15:00.442Z,4.60
2019-06-10T11:17:27.617Z,4.90
2019-06-10T11:19:58.219Z,2.80
2019-06-10T11:22:28.713Z,3.10
2019-06-10T11:24:59.190Z,3.43
2019-06-10T11:27:30.846Z,4.10
2019-06-10T11:30:02.757Z,3.40
2019-06-10T11:32:33.274Z,3.40
2019-06-10T11:35:04.208Z,3.53
2019-06-10T11:37:34.685Z,2.80
2019-06-10T11:40:05.844Z,3.30
2019-06-10T11:42:36.564Z,3.10
2019-06-10T11:45:08.295Z,3.70
2019-06-10T11:47:38.773Z,2.97
2019-06-10T11:50:12.145Z,3.43
2019-06-10T11:52:43.291Z,2.83
2019-06-10T11:55:18.997Z,3.07
2019-06-10T11:57:47.790Z,3.27
2019-06-10T12:00:18.751Z,3.50
2019-06-10T12:02:50.926Z,3.40
2019-06-10T12:05:23.545Z,4.00
2019-06-10T12:07:57.603Z,4.00
2019-06-10T12:10:26.865Z,3.83
2019-06-10T12:13:00.850Z,3.50
2019-06-10T12:15:34.767Z,3.77
2019-06-10T12:18:08.266Z,3.60
2019-06-10T12:20:34.279Z,3.97
2019-06-10T12:23:04.953Z,3.40
2019-06-10T12:25:39.514Z,3.43
2019-06-10T12:28:08.109Z,4.30
2019-06-10T12:30:42.199Z,5.20
2019-06-10T12:33:20.009Z,5.00
2019-06-10T12:35:44.485Z,3.67
2019-06-10T12:38:15.113Z,3.30
2019-06-10T12:40:45.620Z,2.90
2019-06-10T12:43:16.145Z,2.50
2019-06-10T12:45:46.619Z,2.90
2019-06-10T12:48:17.148Z,3.50
2019-06-10T12:50:47.904Z,4.33
2019-06-10T12:53:18.493Z,4.50
2019-06-10T12:55:48.977Z,5.70
2019-06-10T12:58:19.617Z,4.40
2019-06-10T13:00:50.294Z,4.83
2019-06-10T13:03:23.791Z,3.80
2019-06-10T13:05:57.666Z,4.27
2019-06-10T13:08:33.152Z,4.20
2019-06-10T13:11:04.119Z,4.73
2019-06-10T13:13:34.717Z,4.90
2019-06-10T13:16:08.271Z,4.57
2019-06-10T13:18:37.771Z,3.83
2019-06-10T13:21:13.350Z,4.80
2019-06-10T13:23:42.905Z,5.90
2019-06-10T13:26:16.490Z,4.23
2019-06-10T13:28:45.346Z,4.37
2019-06-10T13:31:15.858Z,4.63
2019-06-10T13:33:46.423Z,4.07
2019-06-10T13:36:17.138Z,4.20
2019-06-10T13:38:47.683Z,4.43
2019-06-10T13:41:18.495Z,4.43
2019-06-10T13:43:49.008Z,6.27
2019-06-10T13:46:19.501Z,4.20
2019-06-10T13:48:52.178Z,4.13
2019-06-10T13:51:22.303Z,4.43
2019-06-10T13:53:53.705Z,4.20
2019-06-10T13:56:43.260Z,3.70
2019-06-10T13:58:56.492Z,3.30
2019-06-10T14:01:27.320Z,4.53
2019-06-10T14:03:57.820Z,3.63
2019-06-10T14:06:45.480Z,3.70
2019-06-10T14:09:01.647Z,4.20
2019-06-10T14:11:33.976Z,5.00
2019-06-10T14:14:05.810Z,3.67
2019-06-10T14:16:36.437Z,3.13
2019-06-10T14:19:09.170Z,4.03
2019-06-10T14:21:39.273Z,3.63
2019-06-10T14:24:10.980Z,3.77
2019-06-10T14:26:45.320Z,4.00
2019-06-10T14:29:16.157Z,3.57
2019-06-10T14:31:47.871Z,3.80
2019-06-10T14:34:18.976Z,4.10
2019-06-10T14:36:49.500Z,3.80
2019-06-10T14:39:22.125Z,3.60
2019-06-10T14:41:52.425Z,4.03
2019-06-10T14:44:23.451Z,3.80
2019-06-10T14:46:54.153Z,3.90
2019-06-10T14:49:24.654Z,3.30
2019-06-10T14:51:55.112Z,3.53
2019-06-10T14:54:25.716Z,3.10
2019-06-10T14:56:57.327Z,3.30
2019-06-10T14:59:28.048Z,3.87
2019-06-10T15:01:58.510Z,3.73
2019-06-10T15:04:29.112Z,3.70
2019-06-10T15:06:59.578Z,3.67
2019-06-10T15:09:30.094Z,3.73
2019-06-10T15:12:02.685Z,3.47
2019-06-10T15:14:32.748Z,4.30
2019-06-10T15:17:03.273Z,4.40
2019-06-10T15:19:33.720Z,3.67
2019-06-10T15:22:04.289Z,3.10
2019-06-10T15:24:34.796Z,3.53
2019-06-10T15:27:13.034Z,3.53
2019-06-10T15:29:37.591Z,4.40
2019-06-10T15:32:17.104Z,3.73
2019-06-10T15:34:40.238Z,3.80
2019-06-10T15:37:11.768Z,3.60
2019-06-10T15:39:42.913Z,3.37
2019-06-10T15:42:13.564Z,3.80
2019-06-10T15:44:52.049Z,3.90
2019-06-10T15:47:19.456Z,3.33
2019-06-10T15:49:48.505Z,3.50
2019-06-10T15:52:21.935Z,3.67
2019-06-10T15:54:52.584Z,3.47
2019-06-10T15:57:38.899Z,3.80
2019-06-10T15:59:58.616Z,3.53
2019-06-10T16:02:29.131Z,3.83
2019-06-10T16:04:59.640Z,3.77
2019-06-10T16:07:32.484Z,4.13
2019-06-10T16:10:02.852Z,3.90
2019-06-10T16:12:33.468Z,3.83
2019-06-10T16:15:04.051Z,3.50
2019-06-10T16:17:34.528Z,3.70
2019-06-10T16:20:05.568Z,3.90
2019-06-10T16:22:36.064Z,3.87
2019-06-10T16:25:07.027Z,3.97
2019-06-10T16:27:47.407Z,3.77
2019-06-10T16:30:13.090Z,3.77
2019-06-10T16:32:46.408Z,4.00
2019-06-10T16:35:16.788Z,3.73
2019-06-10T16:37:47.316Z,3.70
2019-06-10T16:40:19.186Z,3.63
2019-06-10T16:42:49.683Z,3.40
2019-06-10T16:45:26.930Z,3.43
2019-06-10T16:47:53.326Z,3.60
2019-06-10T16:50:26.946Z,3.70
2019-06-10T16:52:56.120Z,3.60
2019-06-10T16:55:27.271Z,3.57
2019-06-10T16:57:59.569Z,3.50
2019-06-10T17:00:31.493Z,3.60
2019-06-10T17:03:02.498Z,3.50
2019-06-10T17:05:33.206Z,3.20
2019-06-10T17:08:04.364Z,3.50
2019-06-10T17:10:34.868Z,3.60
2019-06-10T17:13:07.525Z,3.80
2019-06-10T17:15:38.132Z,3.90
2019-06-10T17:18:08.799Z,3.73
2019-06-10T17:20:39.289Z,4.00
2019-06-10T17:23:28.006Z,4.50
2019-06-10T17:25:58.310Z,4.43
2019-06-10T17:28:33.894Z,4.07
2019-06-10T17:31:03.479Z,4.40
2019-06-10T17:33:35.629Z,3.90
2019-06-10T17:36:05.676Z,4.27
2019-06-10T17:38:36.139Z,3.63
2019-06-10T17:41:06.631Z,4.67
2019-06-10T17:43:37.115Z,4.03
2019-06-10T17:46:07.571Z,4.13
2019-06-10T17:48:38.082Z,4.40
2019-06-10T17:51:08.580Z,4.63
2019-06-10T17:53:39.069Z,4.73
2019-06-10T17:56:09.574Z,5.10
2019-06-10T17:58:51.602Z,5.00
2019-06-10T18:01:12.952Z,5.00
2019-06-10T18:03:43.549Z,5.20
2019-06-10T18:06:14.160Z,5.33
2019-06-10T18:08:44.615Z,4.97
2019-06-10T18:11:15.067Z,4.80
2019-06-10T18:13:45.569Z,4.87
2019-06-10T18:16:16.029Z,5.37
2019-06-10T18:18:46.533Z,4.77
2019-06-10T18:21:16.987Z,4.53
2019-06-10T18:23:47.472Z,4.57
2019-06-10T18:26:17.928Z,4.40
2019-06-10T18:29:08.155Z,4.83
2019-06-10T18:31:23.124Z,4.80
2019-06-10T18:33:53.155Z,4.50
2019-06-10T18:36:24.459Z,4.33
2019-06-10T18:38:55.113Z,4.40
2019-06-10T18:41:25.602Z,3.97
2019-06-10T18:43:56.059Z,4.33
2019-06-10T18:46:27.951Z,4.37
2019-06-10T18:48:58.512Z,4.30
2019-06-10T18:51:31.988Z,4.80
2019-06-10T18:54:02.407Z,5.00
2019-06-10T18:56:35.309Z,4.20
2019-06-10T18:59:16.460Z,3.97
2019-06-10T19:01:38.690Z,4.43
2019-06-10T19:04:09.290Z,4.70
2019-06-10T19:06:39.924Z,4.43
2019-06-10T19:09:12.794Z,4.07
2019-06-10T19:11:43.496Z,4.23
2019-06-10T19:14:14.040Z,5.07
2019-06-10T19:16:44.500Z,4.23
2019-06-10T19:19:14.970Z,4.00
2019-06-10T19:22:01.501Z,4.13
2019-06-10T19:24:17.625Z,4.43
2019-06-10T19:26:48.096Z,4.03
2019-06-10T19:29:30.747Z,4.20
2019-06-10T19:31:52.648Z,3.60
2019-06-10T19:34:22.907Z,3.83
2019-06-10T19:36:53.393Z,3.93
2019-06-10T19:39:23.851Z,4.07
2019-06-10T19:41:54.357Z,3.80
2019-06-10T19:44:24.815Z,4.40
2019-06-10T19:46:55.280Z,4.80
2019-06-10T19:49:25.760Z,5.00
2019-06-10T19:51:56.212Z,4.73
2019-06-10T19:54:26.704Z,5.07
2019-06-10T19:56:57.164Z,4.70
2019-06-10T19:59:27.685Z,5.53
2019-06-10T20:01:58.155Z,6.80
2019-06-10T20:04:28.647Z,4.90
2019-06-10T20:06:59.209Z,5.87
2019-06-10T20:09:29.698Z,5.90
2019-06-10T20:12:02.232Z,5.43
2019-06-10T20:14:32.375Z,5.63
2019-06-10T20:17:03.295Z,5.30
2019-06-10T20:19:33.974Z,5.07
2019-06-10T20:22:04.530Z,5.40
2019-06-10T20:24:36.316Z,5.53
2019-06-10T20:27:06.788Z,6.27
2019-06-10T20:29:37.849Z,6.07
2019-06-10T20:32:08.322Z,6.13
2019-06-10T20:34:39.267Z,7.00
2019-06-10T20:37:09.814Z,5.77
2019-06-10T20:39:42.721Z,6.37
2019-06-10T20:42:12.914Z,6.07
2019-06-10T20:44:45.910Z,6.60
2019-06-10T20:47:15.700Z,6.30
2019-06-10T20:49:49.499Z,5.90
2019-06-10T20:52:18.357Z,6.20
2019-06-10T20:54:50.063Z,6.30
2019-06-10T20:57:22.647Z,6.47
2019-06-10T20:59:52.752Z,6.00
2019-06-10T21:02:26.420Z,6.33
2019-06-10T21:04:58.321Z,7.40
2019-06-10T21:07:29.104Z,6.57
2019-06-10T21:10:02.766Z,7.13
2019-06-10T21:12:33.480Z,7.97
2019-06-10T21:15:04.049Z,7.90
2019-06-10T21:17:34.538Z,8.03
2019-06-10T21:20:05.469Z,8.67
2019-06-10T21:22:35.896Z,7.73
2019-06-10T21:25:06.601Z,8.60
2019-06-10T21:27:37.106Z,8.80
2019-06-10T21:30:11.676Z,8.20
2019-06-10T21:32:41.716Z,8.60
2019-06-10T21:35:12.143Z,6.10
2019-06-10T21:37:45.223Z,6.93
2019-06-10T21:40:15.184Z,6.87
2019-06-10T21:42:45.854Z,6.80
2019-06-10T21:45:18.037Z,6.40
2019-06-10T21:47:48.592Z,6.90
2019-06-10T21:50:19.325Z,6.80
2019-06-10T21:52:51.099Z,7.30
2019-06-10T21:55:22.540Z,6.50
2019-06-10T21:57:55.132Z,7.40
2019-06-10T22:00:32.152Z,7.43
2019-06-10T22:03:02.582Z,7.03
2019-06-10T22:05:33.210Z,7.37
2019-06-10T22:08:03.765Z,7.60
2019-06-10T22:10:34.209Z,7.20
2019-06-10T22:13:04.788Z,8.00
2019-06-10T22:15:35.223Z,7.53
2019-06-10T22:18:05.901Z,7.80
2019-06-10T22:20:36.462Z,8.93
2019-06-10T22:23:06.930Z,8.67
2019-06-10T22:25:37.439Z,9.30
2019-06-10T22:28:08.074Z,9.50
2019-06-10T22:30:38.503Z,9.13
2019-06-10T22:33:08.944Z,9.67
2019-06-10T22:35:39.384Z,10.03
2019-06-10T22:38:09.863Z,8.80
2019-06-10T22:40:42.462Z,8.73
2019-06-10T22:43:13.037Z,8.63
2019-06-10T22:45:43.562Z,8.57
2019-06-10T22:48:14.049Z,6.77
2019-06-10T22:50:44.534Z,7.10
2019-06-10T22:53:14.961Z,7.33
2019-06-10T22:55:45.406Z,7.23
2019-06-10T22:58:15.926Z,7.13
2019-06-10T23:00:46.806Z,6.80
2019-06-10T23:03:18.509Z,6.97
2019-06-10T23:05:50.285Z,6.93
2019-06-10T23:08:22.832Z,6.60
2019-06-10T23:10:55.022Z,6.80
2019-06-10T23:13:25.199Z,6.03
2019-06-10T23:15:57.933Z,5.83
2019-06-10T23:18:27.859Z,5.87
2019-06-10T23:20:59.680Z,6.50
2019-06-10T23:23:32.615Z,6.00
2019-06-10T23:26:03.142Z,6.30
2019-06-10T23:28:33.639Z,6.23
2019-06-10T23:31:05.339Z,6.10
2019-06-10T23:33:36.051Z,6.47
2019-06-10T23:36:06.540Z,6.30
2019-06-10T23:38:36.993Z,6.33
2019-06-10T23:41:07.471Z,6.03
2019-06-10T23:43:37.950Z,5.43
2019-06-10T23:46:08.410Z,5.27
2019-06-10T23:48:38.898Z,5.60
2019-06-10T23:51:09.388Z,5.40
2019-06-10T23:53:39.876Z,6.20
2019-06-10T23:56:12.692Z,5.93
2019-06-10T23:58:43.298Z,5.97
